Time;durP1;ratioP1;P1;durP2;ratioP2;P2;SDS_P1;SDS_P2;PMS_P1;PMS_P2;Temp;Humidity;BMP_temperature;BMP_pressure;BME280_temperature;BME280_humidity;BME280_pressure;Samples;Min_cycle;Max_cycle;Signal;HPM_P1;HPM_P2
2022/01/10 00:00:00;;;;;;;36.17;23.73;;;;;;;;;;5032814;28;20108;-67
2022/01/10 00:02:26;;;;;;;35.78;23.48;;;;;;;;;;5033289;28;20057;-68
2022/01/10 00:04:52;;;;;;;40.63;24.30;;;;;;;;;;5032776;28;20024;-69
2022/01/10 00:07:18;;;;;;;44.20;27.92;;;;;;;;;;5032687;28;20416;-69
2022/01/10 00:09:44;;;;;;;46.47;29.00;;;;;;;;;;5033109;28;20025;-68
2022/01/10 00:12:10;;;;;;;44.15;24.92;;;;;;;;;;5033057;28;20034;-70
2022/01/10 00:14:36;;;;;;;38.35;23.42;;;;;;;;;;5032652;28;20100;-71
2022/01/10 00:17:03;;;;;;;29.75;17.48;;;;;;;;;;5032981;28;20412;-69
2022/01/10 00:19:29;;;;;;;26.50;16.77;;;;;;;;;;5033034;28;20099;-68
2022/01/10 00:21:55;;;;;;;28.08;17.75;;;;;;;;;;5032543;28;20033;-67
2022/01/10 00:24:21;;;;;;;26.90;16.38;;;;;;;;;;5032821;28;20337;-67
2022/01/10 00:26:47;;;;;;;24.23;15.27;;;;;;;;;;5032818;28;20522;-68
2022/01/10 00:29:13;;;;;;;22.67;14.75;;;;;;;;;;5032001;28;20033;-68
2022/01/10 00:31:39;;;;;;;26.10;14.98;;;;;;;;;;5032573;28;20389;-73
2022/01/10 00:34:05;;;;;;;23.77;15.63;;;;;;;;;;5032823;28;20033;-68
2022/01/10 00:36:30;;;;;;;27.58;15.57;;;;;;;;;;5032231;28;20036;-67
2022/01/10 00:38:57;;;;;;;23.65;15.32;;;;;;;;;;5032810;28;20022;-68
2022/01/10 00:41:23;;;;;;;23.02;15.35;;;;;;;;;;5032149;28;20396;-69
2022/01/10 00:43:50;;;;;;;26.58;16.20;;;;;;;;;;5031252;28;20029;-69
2022/01/10 00:46:17;;;;;;;26.73;16.92;;;;;;;;;;5032205;28;20064;-68
2022/01/10 00:48:44;;;;;;;27.25;15.50;;;;;;;;;;5047258;28;20032;-67
2022/01/10 00:51:10;;;;;;;22.13;14.70;;;;;;;;;;5031650;28;20033;-68
2022/01/10 00:53:36;;;;;;;26.38;15.30;;;;;;;;;;5032032;28;20026;-68
2022/01/10 00:56:03;;;;;;;22.95;15.88;;;;;;;;;;5031810;28;20037;-68
2022/01/10 00:58:28;;;;;;;25.13;16.10;;;;;;;;;;5031928;28;20025;-72
2022/01/10 01:00:54;;;;;;;33.30;17.98;;;;;;;;;;5032155;28;20113;-69
2022/01/10 01:03:20;;;;;;;30.75;19.20;;;;;;;;;;5030508;28;20484;-70
2022/01/10 01:05:46;;;;;;;30.33;19.58;;;;;;;;;;5031327;28;20116;-72
2022/01/10 01:08:13;;;;;;;28.55;19.88;;;;;;;;;;5031137;28;20094;-67
2022/01/10 01:15:57;;;;;;;33.38;20.35;;;;;;;;;;5011924;28;20087;-67
2022/01/10 01:26:27;;;;;;;36.65;23.35;;;;;;;;;;5015665;28;20061;-67
2022/01/10 01:28:54;;;;;;;39.72;24.95;;;;;;;;;;5029364;28;20032;-68
2022/01/10 01:31:20;;;;;;;40.63;25.55;;;;;;;;;;5031456;28;20046;-67
2022/01/10 01:33:45;;;;;;;39.25;25.48;;;;;;;;;;5030340;28;20037;-68
2022/01/10 01:36:12;;;;;;;38.33;24.80;;;;;;;;;;5046661;28;20042;-67
2022/01/10 01:38:39;;;;;;;40.58;25.75;;;;;;;;;;5030706;28;20491;-68
2022/01/10 01:43:51;;;;;;;40.40;25.42;;;;;;;;;;5030764;28;20034;-71
2022/01/10 01:46:18;;;;;;;40.97;25.65;;;;;;;;;;5030452;28;20120;-68
2022/01/10 01:48:44;;;;;;;40.50;26.65;;;;;;;;;;5030488;28;20076;-70
2022/01/10 01:51:12;;;;;;;44.33;27.80;;;;;;;;;;5030031;28;20028;-70
2022/01/10 01:53:38;;;;;;;36.47;24.60;;;;;;;;;;5030486;28;20388;-67
2022/01/10 01:56:09;;;;;;;39.10;24.83;;;;;;;;;;5032630;28;20025;-69
2022/01/10 01:58:36;;;;;;;39.05;24.45;;;;;;;;;;5033611;28;20132;-69
2022/01/10 02:01:03;;;;;;;42.50;27.02;;;;;;;;;;5034195;28;20450;-68
2022/01/10 02:03:33;;;;;;;41.58;28.15;;;;;;;;;;5027316;28;20038;-70
2022/01/10 02:06:02;;;;;;;42.10;27.10;;;;;;;;;;5046017;28;20024;-68
2022/01/10 02:08:28;;;;;;;44.80;27.20;;;;;;;;;;5059523;28;20052;-67
2022/01/10 02:10:54;;;;;;;41.55;26.60;;;;;;;;;;5053666;28;20029;-69
2022/01/10 02:13:21;;;;;;;38.55;24.92;;;;;;;;;;5053453;28;20130;-69
2022/01/10 02:15:53;;;;;;;42.13;26.45;;;;;;;;;;5053721;28;20067;-68
2022/01/10 02:18:23;;;;;;;37.28;24.70;;;;;;;;;;5053327;28;20037;-67
2022/01/10 02:20:52;;;;;;;37.10;24.83;;;;;;;;;;5036878;28;20033;-70
2022/01/10 02:23:19;;;;;;;37.08;24.60;;;;;;;;;;5044441;28;20030;-69
2022/01/10 02:26:02;;;;;;;34.95;23.50;;;;;;;;;;5032925;28;20512;-69
2022/01/10 02:28:32;;;;;;;34.00;22.70;;;;;;;;;;5050263;28;20037;-67
2022/01/10 02:30:58;;;;;;;38.95;23.02;;;;;;;;;;5035038;28;20053;-69
2022/01/10 02:33:30;;;;;;;35.78;23.92;;;;;;;;;;5033340;28;20069;-68
2022/01/10 02:38:24;;;;;;;42.08;27.90;;;;;;;;;;5033106;28;20030;-68
2022/01/10 02:40:52;;;;;;;38.58;24.02;;;;;;;;;;5032943;28;20064;-68
2022/01/10 02:43:18;;;;;;;33.97;22.45;;;;;;;;;;5033116;28;20021;-69
2022/01/10 02:45:46;;;;;;;36.65;22.33;;;;;;;;;;5049426;28;20163;-67
2022/01/10 02:48:12;;;;;;;32.70;22.27;;;;;;;;;;5032795;28;20489;-69
2022/01/10 02:50:38;;;;;;;37.63;21.95;;;;;;;;;;5034390;28;20029;-68
2022/01/10 02:53:03;;;;;;;35.30;22.02;;;;;;;;;;5033161;28;20029;-68
2022/01/10 02:55:32;;;;;;;33.72;21.45;;;;;;;;;;5032984;28;20507;-67
2022/01/10 02:57:58;;;;;;;30.77;19.23;;;;;;;;;;5032891;28;20069;-69
2022/01/10 03:00:26;;;;;;;30.38;19.80;;;;;;;;;;5033108;28;20092;-67
2022/01/10 03:02:54;;;;;;;29.75;19.08;;;;;;;;;;5033797;28;20245;-68
2022/01/10 03:05:24;;;;;;;30.35;19.83;;;;;;;;;;5031801;28;20041;-68
2022/01/10 03:07:53;;;;;;;31.35;19.20;;;;;;;;;;5013992;28;20322;-67
2022/01/10 03:10:19;;;;;;;30.70;21.05;;;;;;;;;;5032830;28;20048;-68
2022/01/10 03:12:45;;;;;;;28.23;20.42;;;;;;;;;;5049303;28;20121;-67
2022/01/10 03:15:13;;;;;;;27.73;19.13;;;;;;;;;;5032818;28;20460;-67
2022/01/10 03:17:39;;;;;;;28.50;19.05;;;;;;;;;;5033981;28;20033;-67
2022/01/10 03:20:07;;;;;;;26.30;18.33;;;;;;;;;;5033729;28;20021;-67
2022/01/10 03:22:33;;;;;;;22.70;15.70;;;;;;;;;;5034396;28;20029;-67
2022/01/10 03:25:00;;;;;;;25.13;17.27;;;;;;;;;;5034018;28;20025;-67
2022/01/10 03:27:27;;;;;;;23.95;16.65;;;;;;;;;;5032350;28;20029;-68
2022/01/10 03:29:54;;;;;;;27.02;18.45;;;;;;;;;;5031992;28;20056;-68
2022/01/10 03:32:21;;;;;;;27.02;18.48;;;;;;;;;;5032669;28;20036;-67
2022/01/10 03:34:49;;;;;;;26.25;16.50;;;;;;;;;;5032268;28;20068;-67
2022/01/10 03:37:15;;;;;;;26.30;18.08;;;;;;;;;;5032577;28;20073;-67
2022/01/10 03:39:43;;;;;;;24.10;16.80;;;;;;;;;;5032286;28;20124;-68
2022/01/10 03:42:12;;;;;;;29.60;17.85;;;;;;;;;;5048126;28;20026;-68
2022/01/10 03:44:38;;;;;;;29.88;20.33;;;;;;;;;;5031762;28;20029;-67
2022/01/10 03:47:05;;;;;;;29.15;18.45;;;;;;;;;;5031899;28;20589;-67
2022/01/10 03:49:31;;;;;;;29.70;19.45;;;;;;;;;;5031526;28;20116;-67
2022/01/10 03:51:58;;;;;;;27.67;19.08;;;;;;;;;;5033633;28;20049;-67
2022/01/10 03:54:23;;;;;;;27.83;18.05;;;;;;;;;;5031952;28;20030;-69
2022/01/10 03:56:52;;;;;;;29.10;18.10;;;;;;;;;;5031481;28;20048;-69
2022/01/10 03:59:18;;;;;;;30.17;19.70;;;;;;;;;;5033201;28;20022;-67
2022/01/10 04:01:44;;;;;;;29.42;19.30;;;;;;;;;;5031697;28;20095;-68
2022/01/10 04:04:10;;;;;;;31.30;20.50;;;;;;;;;;5031368;28;20033;-68
2022/01/10 04:06:36;;;;;;;34.70;20.80;;;;;;;;;;5031484;28;20033;-68
2022/01/10 04:09:04;;;;;;;32.15;20.33;;;;;;;;;;5031964;28;20121;-67
2022/01/10 04:11:30;;;;;;;32.05;20.38;;;;;;;;;;5050884;28;20068;-68
2022/01/10 04:13:56;;;;;;;30.40;20.60;;;;;;;;;;5051587;28;20029;-69
2022/01/10 04:16:21;;;;;;;33.42;21.58;;;;;;;;;;5042357;28;20044;-68
2022/01/10 04:18:48;;;;;;;33.67;21.60;;;;;;;;;;5031263;28;20025;-68
2022/01/10 04:21:14;;;;;;;34.42;21.58;;;;;;;;;;5048113;28;20037;-68
2022/01/10 04:23:40;;;;;;;36.00;21.55;;;;;;;;;;5031650;28;20162;-68
2022/01/10 04:26:07;;;;;;;30.90;19.42;;;;;;;;;;5030934;28;20099;-67
2022/01/10 04:28:34;;;;;;;29.23;18.38;;;;;;;;;;5031691;28;20431;-67
2022/01/10 04:31:03;;;;;;;31.70;19.52;;;;;;;;;;5032522;28;20094;-68
2022/01/10 04:33:30;;;;;;;34.08;22.30;;;;;;;;;;5015062;28;20037;-67
2022/01/10 04:35:58;;;;;;;33.15;20.77;;;;;;;;;;5031656;28;20037;-69
2022/01/10 04:38:26;;;;;;;35.50;22.27;;;;;;;;;;5047547;28;20103;-67
2022/01/10 04:40:53;;;;;;;31.17;19.73;;;;;;;;;;5031857;28;20080;-68
2022/01/10 04:43:19;;;;;;;33.08;22.13;;;;;;;;;;5030891;28;20022;-68
2022/01/10 04:45:45;;;;;;;33.13;21.05;;;;;;;;;;5030315;28;20441;-69
2022/01/10 04:48:11;;;;;;;35.00;20.55;;;;;;;;;;5031919;28;20025;-69
2022/01/10 04:53:23;;;;;;;37.53;24.60;;;;;;;;;;5044885;28;20033;-68
2022/01/10 04:55:48;;;;;;;36.35;23.55;;;;;;;;;;5050152;28;20095;-68
2022/01/10 04:58:15;;;;;;;39.45;24.05;;;;;;;;;;5049958;28;20036;-68
2022/01/10 05:00:41;;;;;;;40.72;25.08;;;;;;;;;;5050537;28;20028;-68
2022/01/10 05:03:08;;;;;;;40.20;25.50;;;;;;;;;;5056111;28;20189;-67
2022/01/10 05:05:34;;;;;;;36.00;24.60;;;;;;;;;;5034405;28;20380;-69
2022/01/10 05:08:01;;;;;;;37.90;25.13;;;;;;;;;;5047364;28;20439;-68
2022/01/10 05:10:27;;;;;;;39.00;25.33;;;;;;;;;;5049504;28;20571;-69
2022/01/10 05:12:53;;;;;;;37.90;24.90;;;;;;;;;;5050265;28;20037;-71
2022/01/10 05:15:19;;;;;;;33.53;22.52;;;;;;;;;;5050323;28;20502;-71
2022/01/10 05:17:45;;;;;;;32.38;21.65;;;;;;;;;;5050869;28;20043;-72
2022/01/10 05:20:11;;;;;;;29.90;20.80;;;;;;;;;;5034119;28;20070;-72
2022/01/10 05:22:38;;;;;;;31.38;20.67;;;;;;;;;;5029900;28;20041;-72
2022/01/10 05:25:04;;;;;;;34.63;23.00;;;;;;;;;;5029294;28;20056;-71
2022/01/10 05:27:31;;;;;;;34.17;21.10;;;;;;;;;;5032051;28;20037;-75
2022/01/10 05:30:01;;;;;;;32.88;18.98;;;;;;;;;;5065648;28;20041;-71
2022/01/10 05:32:27;;;;;;;29.27;19.73;;;;;;;;;;5062646;28;20090;-75
2022/01/10 05:35:11;;;;;;;33.47;21.77;;;;;;;;;;5047786;28;20037;-74
2022/01/10 05:37:37;;;;;;;27.52;18.70;;;;;;;;;;5048631;28;20036;-74
2022/01/10 05:40:03;;;;;;;26.02;17.65;;;;;;;;;;5043865;28;20393;-73
2022/01/10 05:42:29;;;;;;;26.38;17.42;;;;;;;;;;5035035;28;20057;-74
2022/01/10 05:44:55;;;;;;;27.33;18.00;;;;;;;;;;5011252;28;20029;-73
2022/01/10 05:47:21;;;;;;;26.20;17.50;;;;;;;;;;5028034;28;20033;-72
2022/01/10 05:50:00;;;;;;;32.90;19.70;;;;;;;;;;5029359;28;20038;-72
2022/01/10 05:52:30;;;;;;;28.38;18.48;;;;;;;;;;5046759;28;20030;-73
2022/01/10 05:54:57;;;;;;;26.33;16.50;;;;;;;;;;5030489;28;20531;-75
2022/01/10 05:57:24;;;;;;;28.67;18.30;;;;;;;;;;5028121;28;20065;-72
2022/01/10 05:59:52;;;;;;;28.13;19.08;;;;;;;;;;5029912;28;20021;-72
2022/01/10 06:02:19;;;;;;;32.35;21.63;;;;;;;;;;5029393;28;20084;-71
2022/01/10 06:04:45;;;;;;;35.72;21.48;;;;;;;;;;5029509;28;20368;-72
2022/01/10 06:07:25;;;;;;;35.35;23.75;;;;;;;;;;5029466;28;20130;-72
2022/01/10 06:09:52;;;;;;;35.72;23.50;;;;;;;;;;5046104;28;20034;-71
2022/01/10 06:12:19;;;;;;;36.60;23.40;;;;;;;;;;5029316;28;20029;-73
2022/01/10 06:14:45;;;;;;;39.00;24.83;;;;;;;;;;5029536;28;20045;-73
2022/01/10 06:17:11;;;;;;;42.55;24.23;;;;;;;;;;5029669;28;20053;-72
2022/01/10 06:19:37;;;;;;;38.30;24.20;;;;;;;;;;5029894;28;20134;-74
2022/01/10 06:22:04;;;;;;;40.67;24.17;;;;;;;;;;5025824;28;20069;-73
2022/01/10 06:24:30;;;;;;;36.17;22.58;;;;;;;;;;5027960;28;20034;-71
2022/01/10 06:26:57;;;;;;;34.63;21.85;;;;;;;;;;5046701;28;20244;-75
2022/01/10 06:29:23;;;;;;;31.50;20.55;;;;;;;;;;5032106;28;20417;-74
2022/01/10 06:31:49;;;;;;;29.60;19.52;;;;;;;;;;5046985;28;20053;-75
2022/01/10 06:34:18;;;;;;;31.20;20.95;;;;;;;;;;5046680;28;20034;-75
2022/01/10 06:36:45;;;;;;;33.05;21.27;;;;;;;;;;5029857;28;20022;-73
2022/01/10 06:39:12;;;;;;;31.00;19.90;;;;;;;;;;5046475;28;20047;-72
2022/01/10 06:41:42;;;;;;;26.02;17.17;;;;;;;;;;5046298;28;20022;-75
2022/01/10 06:44:08;;;;;;;30.05;18.38;;;;;;;;;;5050286;28;20084;-73
2022/01/10 06:46:35;;;;;;;24.10;16.13;;;;;;;;;;5033974;28;20026;-73
2022/01/10 06:49:02;;;;;;;24.63;14.25;;;;;;;;;;5050647;28;20113;-73
2022/01/10 06:51:30;;;;;;;20.98;13.50;;;;;;;;;;5050271;28;20070;-73
2022/01/10 06:53:56;;;;;;;21.25;14.90;;;;;;;;;;5050157;28;20030;-73
2022/01/10 06:56:22;;;;;;;23.23;15.30;;;;;;;;;;5050328;28;20420;-75
2022/01/10 06:58:48;;;;;;;27.77;17.48;;;;;;;;;;5033533;28;20070;-72
2022/01/10 07:01:20;;;;;;;27.15;18.45;;;;;;;;;;5047774;28;20040;-71
2022/01/10 07:03:52;;;;;;;25.75;16.60;;;;;;;;;;5023348;28;20038;-72
2022/01/10 07:06:21;;;;;;;32.00;18.38;;;;;;;;;;5030137;28;20049;-72
2022/01/10 07:08:48;;;;;;;31.50;17.88;;;;;;;;;;5013778;28;20120;-74
2022/01/10 07:11:15;;;;;;;30.35;18.95;;;;;;;;;;5014040;28;20100;-74
2022/01/10 07:13:43;;;;;;;30.90;18.65;;;;;;;;;;5013882;28;20034;-73
2022/01/10 07:16:10;;;;;;;24.65;15.45;;;;;;;;;;5013715;28;20034;-72
2022/01/10 07:18:36;;;;;;;49.72;16.98;;;;;;;;;;5013602;28;20032;-73
2022/01/10 07:21:11;;;;;;;51.38;19.05;;;;;;;;;;5013606;28;20034;-74
2022/01/10 07:23:37;;;;;;;30.98;18.83;;;;;;;;;;5013422;28;20060;-74
2022/01/10 07:26:04;;;;;;;36.03;21.42;;;;;;;;;;5014609;28;20049;-74
2022/01/10 07:28:30;;;;;;;41.38;21.30;;;;;;;;;;5014534;28;20084;-72
2022/01/10 07:30:55;;;;;;;58.50;23.20;;;;;;;;;;5015057;28;20037;-74
2022/01/10 07:33:22;;;;;;;68.80;24.23;;;;;;;;;;5015433;28;20520;-72
2022/01/10 07:35:48;;;;;;;38.58;22.23;;;;;;;;;;5014573;28;20021;-71
2022/01/10 07:38:14;;;;;;;33.80;21.65;;;;;;;;;;5014761;28;20030;-73
2022/01/10 07:40:39;;;;;;;31.25;20.80;;;;;;;;;;5023034;28;20084;-72
2022/01/10 07:43:05;;;;;;;32.42;20.98;;;;;;;;;;5033760;28;20094;-74
2022/01/10 07:45:50;;;;;;;41.55;23.17;;;;;;;;;;5032815;28;20120;-71
2022/01/10 07:48:17;;;;;;;33.58;21.70;;;;;;;;;;5033780;28;20152;-71
2022/01/10 07:50:43;;;;;;;35.75;22.60;;;;;;;;;;5034093;28;20108;-76
2022/01/10 07:53:09;;;;;;;34.53;21.73;;;;;;;;;;5033399;28;20476;-71
2022/01/10 07:55:35;;;;;;;29.08;19.52;;;;;;;;;;5033745;28;20024;-71
2022/01/10 07:58:01;;;;;;;32.13;20.73;;;;;;;;;;5034129;28;20116;-75
2022/01/10 08:00:27;;;;;;;28.58;19.77;;;;;;;;;;5033896;28;20113;-76
2022/01/10 08:02:53;;;;;;;34.67;19.77;;;;;;;;;;5033525;28;20056;-73
2022/01/10 08:05:19;;;;;;;27.95;18.42;;;;;;;;;;5033371;28;20029;-74
2022/01/10 08:07:45;;;;;;;29.83;17.92;;;;;;;;;;5033116;28;20030;-75
2022/01/10 08:10:11;;;;;;;37.53;20.67;;;;;;;;;;5033427;28;20025;-76
2022/01/10 08:12:37;;;;;;;33.13;22.35;;;;;;;;;;5033454;28;20499;-74
2022/01/10 08:15:05;;;;;;;35.00;21.70;;;;;;;;;;5033213;28;20030;-75
2022/01/10 08:17:31;;;;;;;37.45;22.15;;;;;;;;;;5033121;28;20492;-78
2022/01/10 08:19:57;;;;;;;46.10;23.58;;;;;;;;;;5032798;28;20025;-75
2022/01/10 08:22:23;;;;;;;68.43;30.13;;;;;;;;;;5033311;28;20037;-77
2022/01/10 08:24:50;;;;;;;46.50;26.25;;;;;;;;;;5031606;28;20083;-77
2022/01/10 08:27:16;;;;;;;41.53;23.63;;;;;;;;;;5032495;28;20034;-74
2022/01/10 08:29:42;;;;;;;35.53;22.67;;;;;;;;;;5032971;28;20032;-76
2022/01/10 08:32:08;;;;;;;32.58;22.80;;;;;;;;;;5032973;28;20061;-76
2022/01/10 08:34:34;;;;;;;36.72;22.63;;;;;;;;;;5032614;28;20389;-75
2022/01/10 08:37:00;;;;;;;41.78;23.08;;;;;;;;;;5032517;28;20049;-73
2022/01/10 08:39:26;;;;;;;39.08;23.35;;;;;;;;;;5032855;28;20021;-74
2022/01/10 08:41:52;;;;;;;40.72;23.35;;;;;;;;;;5032754;28;20044;-73
2022/01/10 08:44:18;;;;;;;41.92;23.98;;;;;;;;;;5032436;28;20030;-75
2022/01/10 08:46:45;;;;;;;37.17;21.88;;;;;;;;;;5030897;28;20033;-74
2022/01/10 08:49:13;;;;;;;34.97;20.63;;;;;;;;;;5032652;28;20021;-76
2022/01/10 08:51:41;;;;;;;32.70;21.15;;;;;;;;;;5032224;28;20033;-74
2022/01/10 08:54:08;;;;;;;32.85;23.17;;;;;;;;;;5029758;28;20021;-74
2022/01/10 08:56:35;;;;;;;34.80;22.27;;;;;;;;;;5031981;28;20108;-74
2022/01/10 08:59:01;;;;;;;35.97;24.50;;;;;;;;;;5032329;28;20029;-75
2022/01/10 09:01:27;;;;;;;37.25;24.60;;;;;;;;;;5031776;28;20043;-74
2022/01/10 09:03:54;;;;;;;37.95;22.88;;;;;;;;;;5032083;28;20384;-73
2022/01/10 09:06:20;;;;;;;32.15;21.92;;;;;;;;;;5030944;28;20612;-74
2022/01/10 09:08:49;;;;;;;36.17;23.42;;;;;;;;;;5031699;28;20087;-75
2022/01/10 09:11:15;;;;;;;41.05;25.58;;;;;;;;;;5032254;28;20033;-77
2022/01/10 09:13:41;;;;;;;33.65;21.50;;;;;;;;;;5031650;28;20380;-75
2022/01/10 09:16:08;;;;;;;36.45;22.40;;;;;;;;;;5031929;28;20388;-75
2022/01/10 09:18:34;;;;;;;43.10;22.95;;;;;;;;;;5032200;28;20025;-74
2022/01/10 09:21:01;;;;;;;36.95;22.67;;;;;;;;;;5032108;28;20033;-74
2022/01/10 09:23:27;;;;;;;44.58;24.05;;;;;;;;;;5031797;28;20029;-73
2022/01/10 09:25:53;;;;;;;45.83;23.25;;;;;;;;;;5031487;28;20488;-74
2022/01/10 09:28:19;;;;;;;42.42;22.42;;;;;;;;;;5031604;28;20029;-75
2022/01/10 09:30:46;;;;;;;48.83;24.42;;;;;;;;;;5031622;28;20396;-73
2022/01/10 09:33:12;;;;;;;36.30;20.45;;;;;;;;;;5031798;28;20095;-76
2022/01/10 09:35:40;;;;;;;30.83;18.23;;;;;;;;;;5032355;28;20033;-73
2022/01/10 09:38:05;;;;;;;30.75;18.65;;;;;;;;;;5031689;28;20314;-73
2022/01/10 09:40:32;;;;;;;29.85;17.85;;;;;;;;;;5031397;28;20083;-71
2022/01/10 09:42:58;;;;;;;27.17;17.42;;;;;;;;;;5031516;28;20392;-72
2022/01/10 09:45:23;;;;;;;26.50;17.58;;;;;;;;;;5031323;28;20042;-73
2022/01/10 09:47:49;;;;;;;28.45;18.90;;;;;;;;;;5030208;28;20032;-73
2022/01/10 09:50:18;;;;;;;26.70;16.02;;;;;;;;;;5031452;28;20044;-73
2022/01/10 09:52:48;;;;;;;22.55;14.55;;;;;;;;;;5030625;28;20030;-72
2022/01/10 09:55:14;;;;;;;21.38;14.55;;;;;;;;;;5031242;28;20117;-73
2022/01/10 09:57:40;;;;;;;23.80;14.82;;;;;;;;;;5031229;28;20116;-71
2022/01/10 10:00:07;;;;;;;19.25;13.93;;;;;;;;;;5031766;28;20039;-76
2022/01/10 10:02:40;;;;;;;21.42;14.00;;;;;;;;;;5031543;28;20116;-75
2022/01/10 10:05:09;;;;;;;19.55;13.90;;;;;;;;;;5031017;28;20033;-76
2022/01/10 10:07:39;;;;;;;21.38;14.68;;;;;;;;;;5031106;28;20035;-74
2022/01/10 10:10:12;;;;;;;26.27;16.55;;;;;;;;;;5031581;28;20421;-76
2022/01/10 10:12:39;;;;;;;24.27;16.65;;;;;;;;;;5031625;28;20511;-73
2022/01/10 10:15:07;;;;;;;27.70;18.80;;;;;;;;;;5031226;28;20486;-73
2022/01/10 10:17:44;;;;;;;28.55;19.27;;;;;;;;;;5034489;28;20453;-73
2022/01/10 10:20:12;;;;;;;32.80;18.88;;;;;;;;;;5035404;28;20029;-74
2022/01/10 10:22:43;;;;;;;29.33;18.35;;;;;;;;;;5035168;28;20075;-73
2022/01/10 10:25:10;;;;;;;25.60;15.38;;;;;;;;;;5035056;28;20048;-75
2022/01/10 10:27:38;;;;;;;23.98;16.63;;;;;;;;;;5034927;28;20127;-72
2022/01/10 10:30:09;;;;;;;25.08;17.30;;;;;;;;;;5034509;28;20079;-74
2022/01/10 10:32:35;;;;;;;25.77;18.23;;;;;;;;;;5034957;28;20457;-71
2022/01/10 10:35:04;;;;;;;27.75;17.30;;;;;;;;;;5035031;28;20056;-74
2022/01/10 10:37:31;;;;;;;26.38;18.95;;;;;;;;;;5034927;28;20421;-72
2022/01/10 10:39:57;;;;;;;28.35;20.88;;;;;;;;;;5032221;28;20029;-72
2022/01/10 10:42:28;;;;;;;40.35;30.25;;;;;;;;;;5032951;28;20043;-71
2022/01/10 10:44:56;;;;;;;39.38;27.67;;;;;;;;;;5035340;28;20048;-73
2022/01/10 10:47:26;;;;;;;34.95;27.05;;;;;;;;;;5035392;28;20040;-72
2022/01/10 10:49:57;;;;;;;35.22;25.13;;;;;;;;;;5034819;28;20460;-72
2022/01/10 10:52:31;;;;;;;26.58;19.42;;;;;;;;;;5035419;28;20109;-71
2022/01/10 10:55:00;;;;;;;24.85;17.92;;;;;;;;;;5035255;28;20037;-73
2022/01/10 10:57:27;;;;;;;24.25;16.48;;;;;;;;;;5035091;28;20029;-72
2022/01/10 10:59:53;;;;;;;24.30;14.23;;;;;;;;;;5033521;28;20040;-72
2022/01/10 11:02:21;;;;;;;20.17;12.52;;;;;;;;;;5032172;28;20030;-72
2022/01/10 11:04:47;;;;;;;16.02;9.73;;;;;;;;;;5034812;28;20068;-72
2022/01/10 11:07:13;;;;;;;14.38;9.02;;;;;;;;;;5034649;28;20021;-72
2022/01/10 11:09:41;;;;;;;14.32;9.02;;;;;;;;;;5034482;28;20079;-74
2022/01/10 11:12:07;;;;;;;13.13;8.57;;;;;;;;;;5034715;28;20021;-72
2022/01/10 11:14:33;;;;;;;13.77;8.98;;;;;;;;;;5034636;28;20029;-74
2022/01/10 11:16:59;;;;;;;12.35;7.28;;;;;;;;;;5034388;28;20047;-73
2022/01/10 11:19:26;;;;;;;11.00;6.22;;;;;;;;;;5034072;28;20037;-73
2022/01/10 11:21:52;;;;;;;9.38;6.63;;;;;;;;;;5034197;28;20417;-73
2022/01/10 11:24:55;;;;;;;12.55;8.15;;;;;;;;;;5033749;28;20037;-72
2022/01/10 11:27:34;;;;;;;9.48;5.50;;;;;;;;;;5033440;28;20038;-71
2022/01/10 11:30:20;;;;;;;9.85;6.28;;;;;;;;;;5034000;28;20514;-74
2022/01/10 11:33:04;;;;;;;8.45;5.53;;;;;;;;;;5033689;28;20084;-72
2022/01/10 11:35:33;;;;;;;11.38;6.70;;;;;;;;;;5034116;28;20120;-72
2022/01/10 11:37:59;;;;;;;10.98;6.75;;;;;;;;;;5033778;28;20021;-73
2022/01/10 11:40:26;;;;;;;9.63;6.20;;;;;;;;;;5033684;28;20073;-72
2022/01/10 11:42:58;;;;;;;10.23;6.32;;;;;;;;;;5033729;28;20072;-70
2022/01/10 11:45:26;;;;;;;10.60;6.35;;;;;;;;;;5033061;28;20037;-70
2022/01/10 11:48:07;;;;;;;11.25;6.70;;;;;;;;;;5033260;28;20040;-70
2022/01/10 11:50:33;;;;;;;10.18;6.60;;;;;;;;;;5033915;28;20083;-73
2022/01/10 11:53:02;;;;;;;9.00;5.88;;;;;;;;;;5033922;28;20032;-72
2022/01/10 11:55:50;;;;;;;12.65;6.22;;;;;;;;;;5034702;28;20099;-73
2022/01/10 11:58:20;;;;;;;9.00;4.47;;;;;;;;;;5033203;28;20056;-71
2022/01/10 12:00:47;;;;;;;9.00;4.80;;;;;;;;;;5033685;28;20037;-71
2022/01/10 12:03:12;;;;;;;5.15;3.08;;;;;;;;;;5033517;28;20030;-72
2022/01/10 12:05:40;;;;;;;8.80;3.60;;;;;;;;;;5033133;28;20111;-71
2022/01/10 12:08:06;;;;;;;6.47;3.38;;;;;;;;;;5032510;28;20022;-71
2022/01/10 12:10:32;;;;;;;4.60;2.55;;;;;;;;;;5031610;28;20052;-72
2022/01/10 12:13:06;;;;;;;5.45;3.08;;;;;;;;;;5032803;28;20105;-75
2022/01/10 12:15:36;;;;;;;14.82;4.38;;;;;;;;;;5034046;28;20026;-75
2022/01/10 12:18:03;;;;;;;5.90;3.67;;;;;;;;;;5034130;28;20468;-74
2022/01/10 12:20:30;;;;;;;5.32;3.33;;;;;;;;;;5033854;28;20109;-73
2022/01/10 12:22:57;;;;;;;8.73;3.88;;;;;;;;;;5033832;28;20045;-73
2022/01/10 12:25:24;;;;;;;8.95;4.65;;;;;;;;;;5033239;28;20357;-73
2022/01/10 12:27:56;;;;;;;8.10;3.33;;;;;;;;;;5033460;28;20041;-72
2022/01/10 12:30:25;;;;;;;3.75;2.47;;;;;;;;;;5033366;28;20412;-71
2022/01/10 12:32:52;;;;;;;7.78;2.40;;;;;;;;;;5033144;28;20082;-74
2022/01/10 12:35:20;;;;;;;7.22;2.40;;;;;;;;;;5033314;28;20092;-71
2022/01/10 12:37:46;;;;;;;6.70;2.28;;;;;;;;;;5033371;28;20021;-73
2022/01/10 12:40:14;;;;;;;4.07;2.20;;;;;;;;;;5033602;28;20040;-72
2022/01/10 12:42:40;;;;;;;5.53;2.45;;;;;;;;;;5032639;28;20028;-71
2022/01/10 12:45:06;;;;;;;9.63;2.78;;;;;;;;;;5033009;28;20116;-74
2022/01/10 12:47:32;;;;;;;7.70;2.75;;;;;;;;;;5033011;28;20479;-70
2022/01/10 12:49:59;;;;;;;10.90;2.30;;;;;;;;;;5025026;28;20045;-75
2022/01/10 12:52:24;;;;;;;9.35;2.25;;;;;;;;;;5017871;28;20116;-75
2022/01/10 12:54:51;;;;;;;13.68;2.88;;;;;;;;;;5015274;28;20113;-76
2022/01/10 12:57:17;;;;;;;13.23;2.90;;;;;;;;;;5023698;28;20653;-72
2022/01/10 12:59:44;;;;;;;8.48;3.67;;;;;;;;;;5032514;28;20029;-73
2022/01/10 13:02:10;;;;;;;21.75;5.65;;;;;;;;;;5018217;28;20120;-76
2022/01/10 13:04:40;;;;;;;9.13;4.05;;;;;;;;;;5012136;28;20088;-73
2022/01/10 13:07:11;;;;;;;5.97;3.20;;;;;;;;;;5012995;28;20389;-71
2022/01/10 13:09:38;;;;;;;26.02;4.97;;;;;;;;;;5012833;28;20428;-71
2022/01/10 13:14:50;;;;;;;8.02;4.13;;;;;;;;;;5012569;28;20088;-72
2022/01/10 13:17:21;;;;;;;14.07;5.13;;;;;;;;;;5026247;28;20030;-74
2022/01/10 13:20:02;;;;;;;10.60;5.00;;;;;;;;;;5027235;28;20053;-75
2022/01/10 13:22:34;;;;;;;9.27;4.78;;;;;;;;;;5031450;28;20132;-75
2022/01/10 13:25:01;;;;;;;15.20;5.10;;;;;;;;;;5012468;28;20046;-74
2022/01/10 13:27:35;;;;;;;12.02;5.78;;;;;;;;;;5023584;28;20465;-72
2022/01/10 13:30:16;;;;;;;17.52;6.28;;;;;;;;;;5031411;28;20456;-75
2022/01/10 13:32:44;;;;;;;10.95;6.85;;;;;;;;;;5027846;28;20037;-74
2022/01/10 13:35:16;;;;;;;22.08;8.10;;;;;;;;;;5017501;28;20455;-74
2022/01/10 13:37:48;;;;;;;12.18;6.32;;;;;;;;;;5012471;28;20116;-74
2022/01/10 13:40:20;;;;;;;9.05;5.50;;;;;;;;;;5012579;28;20165;-72
2022/01/10 13:42:50;;;;;;;13.48;5.97;;;;;;;;;;5011833;28;20507;-73
2022/01/10 13:45:39;;;;;;;23.63;6.25;;;;;;;;;;5012498;28;20389;-71
2022/01/10 13:48:05;;;;;;;11.10;5.15;;;;;;;;;;5012653;28;20030;-73
2022/01/10 13:50:33;;;;;;;13.55;5.65;;;;;;;;;;5012899;28;20026;-74
2022/01/10 13:53:13;;;;;;;14.48;4.90;;;;;;;;;;5018957;28;20037;-72
2022/01/10 13:55:43;;;;;;;10.05;4.50;;;;;;;;;;5018957;28;20044;-74
2022/01/10 13:58:28;;;;;;;7.97;3.63;;;;;;;;;;5018972;28;20037;-72
2022/01/10 14:01:02;;;;;;;19.10;5.32;;;;;;;;;;5018736;28;20084;-72
2022/01/10 14:03:31;;;;;;;15.55;4.97;;;;;;;;;;5018875;28;20092;-74
2022/01/10 14:06:33;;;;;;;9.85;4.20;;;;;;;;;;5018599;28;20491;-76
2022/01/10 14:09:05;;;;;;;8.52;4.15;;;;;;;;;;5020497;28;20124;-74
2022/01/10 14:11:35;;;;;;;11.02;3.55;;;;;;;;;;5019140;28;20555;-74
2022/01/10 14:14:09;;;;;;;8.32;2.30;;;;;;;;;;5022473;28;20113;-75
2022/01/10 14:16:39;;;;;;;12.15;2.80;;;;;;;;;;5019095;28;20456;-77
2022/01/10 14:19:09;;;;;;;7.47;2.95;;;;;;;;;;5021743;28;20021;-74
2022/01/10 14:21:36;;;;;;;5.47;2.42;;;;;;;;;;5037260;28;20045;-71
2022/01/10 14:24:03;;;;;;;6.20;2.70;;;;;;;;;;5052432;28;20022;-73
2022/01/10 14:26:29;;;;;;;8.35;3.15;;;;;;;;;;5036821;28;20051;-75
2022/01/10 14:28:55;;;;;;;12.25;3.78;;;;;;;;;;5037653;28;20401;-72
2022/01/10 14:31:21;;;;;;;5.90;3.95;;;;;;;;;;5037360;28;20049;-75
2022/01/10 14:33:49;;;;;;;8.82;4.63;;;;;;;;;;5036813;28;20432;-74
2022/01/10 14:36:15;;;;;;;11.93;4.57;;;;;;;;;;5036972;28;20750;-78
2022/01/10 14:38:42;;;;;;;8.82;4.82;;;;;;;;;;5018986;28;20164;-73
2022/01/10 14:41:10;;;;;;;17.10;7.28;;;;;;;;;;5022176;28;20574;-72
2022/01/10 14:43:35;;;;;;;12.38;6.15;;;;;;;;;;5029084;28;20108;-74
2022/01/10 14:46:02;;;;;;;11.20;4.70;;;;;;;;;;5031428;28;20411;-73
2022/01/10 14:48:29;;;;;;;25.20;7.38;;;;;;;;;;5036149;28;20060;-77